sensor_id;sensor_type;location;lat;lon;timestamp;pressure;altitude;pressure_sealevel;temperature
20103;BMP180;10210;52.284;9.892;2024-01-06T00:01:43;99147.00;;;10.00
20103;BMP180;10210;52.284;9.892;2024-01-06T00:04:08;99150.00;;;10.00
20103;BMP180;10210;52.284;9.892;2024-01-06T00:06:34;99153.00;;;10.00
20103;BMP180;10210;52.284;9.892;2024-01-06T00:09:00;99148.00;;;10.00
20103;BMP180;10210;52.284;9.892;2024-01-06T00:11:25;99149.00;;;10.00
20103;BMP180;10210;52.284;9.892;2024-01-06T00:13:51;99156.00;;;10.00
20103;BMP180;10210;52.284;9.892;2024-01-06T00:16:18;99157.00;;;10.00
20103;BMP180;10210;52.284;9.892;2024-01-06T00:18:45;99153.00;;;10.00
20103;BMP180;10210;52.284;9.892;2024-01-06T00:21:11;99169.00;;;9.90
20103;BMP180;10210;52.284;9.892;2024-01-06T00:23:37;99155.00;;;9.90
20103;BMP180;10210;52.284;9.892;2024-01-06T00:26:03;99171.00;;;9.90
20103;BMP180;10210;52.284;9.892;2024-01-06T00:28:29;99153.00;;;9.90
20103;BMP180;10210;52.284;9.892;2024-01-06T00:30:55;99174.00;;;10.00
20103;BMP180;10210;52.284;9.892;2024-01-06T00:33:20;99171.00;;;10.00
20103;BMP180;10210;52.284;9.892;2024-01-06T00:35:46;99182.00;;;10.00
20103;BMP180;10210;52.284;9.892;2024-01-06T00:38:12;99171.00;;;10.00
20103;BMP180;10210;52.284;9.892;2024-01-06T00:40:38;99174.00;;;9.90
20103;BMP180;10210;52.284;9.892;2024-01-06T00:43:04;99167.00;;;9.90
20103;BMP180;10210;52.284;9.892;2024-01-06T00:45:29;99168.00;;;9.80
20103;BMP180;10210;52.284;9.892;2024-01-06T00:47:56;99175.00;;;9.80
20103;BMP180;10210;52.284;9.892;2024-01-06T00:50:22;99181.00;;;9.80
20103;BMP180;10210;52.284;9.892;2024-01-06T00:52:47;99184.00;;;9.80
20103;BMP180;10210;52.284;9.892;2024-01-06T00:55:13;99191.00;;;9.80
20103;BMP180;10210;52.284;9.892;2024-01-06T00:57:39;99194.00;;;9.80
20103;BMP180;10210;52.284;9.892;2024-01-06T01:00:06;99188.00;;;9.80
20103;BMP180;10210;52.284;9.892;2024-01-06T01:02:33;99192.00;;;9.80
20103;BMP180;10210;52.284;9.892;2024-01-06T01:04:58;99197.00;;;9.80
20103;BMP180;10210;52.284;9.892;2024-01-06T01:07:24;99196.00;;;9.80
20103;BMP180;10210;52.284;9.892;2024-01-06T01:09:50;99204.00;;;9.80
20103;BMP180;10210;52.284;9.892;2024-01-06T01:12:16;99195.00;;;9.80
20103;BMP180;10210;52.284;9.892;2024-01-06T01:14:43;99203.00;;;9.80
20103;BMP180;10210;52.284;9.892;2024-01-06T01:17:08;99202.00;;;9.80
20103;BMP180;10210;52.284;9.892;2024-01-06T01:19:34;99210.00;;;9.80
20103;BMP180;10210;52.284;9.892;2024-01-06T01:22:00;99216.00;;;9.80
20103;BMP180;10210;52.284;9.892;2024-01-06T01:24:26;99215.00;;;9.70
20103;BMP180;10210;52.284;9.892;2024-01-06T01:26:51;99219.00;;;9.70
20103;BMP180;10210;52.284;9.892;2024-01-06T01:29:17;99226.00;;;9.70
20103;BMP180;10210;52.284;9.892;2024-01-06T01:31:46;99226.00;;;9.60
20103;BMP180;10210;52.284;9.892;2024-01-06T01:34:12;99220.00;;;9.60
20103;BMP180;10210;52.284;9.892;2024-01-06T01:36:37;99217.00;;;9.60
20103;BMP180;10210;52.284;9.892;2024-01-06T01:39:03;99223.00;;;9.60
20103;BMP180;10210;52.284;9.892;2024-01-06T01:41:29;99225.00;;;9.60
20103;BMP180;10210;52.284;9.892;2024-01-06T01:43:54;99220.00;;;9.60
20103;BMP180;10210;52.284;9.892;2024-01-06T01:46:28;99219.00;;;9.60
20103;BMP180;10210;52.284;9.892;2024-01-06T01:48:55;99223.00;;;9.60
20103;BMP180;10210;52.284;9.892;2024-01-06T01:51:23;99224.00;;;9.50
20103;BMP180;10210;52.284;9.892;2024-01-06T01:53:49;99228.00;;;9.50
20103;BMP180;10210;52.284;9.892;2024-01-06T01:56:16;99224.00;;;9.50
20103;BMP180;10210;52.284;9.892;2024-01-06T01:58:43;99224.00;;;9.50
20103;BMP180;10210;52.284;9.892;2024-01-06T02:01:09;99228.00;;;9.60
20103;BMP180;10210;52.284;9.892;2024-01-06T02:03:35;99229.00;;;9.60
20103;BMP180;10210;52.284;9.892;2024-01-06T02:06:01;99231.00;;;9.60
20103;BMP180;10210;52.284;9.892;2024-01-06T02:08:27;99233.00;;;9.70
20103;BMP180;10210;52.284;9.892;2024-01-06T02:10:56;99227.00;;;9.70
20103;BMP180;10210;52.284;9.892;2024-01-06T02:13:23;99234.00;;;9.70
20103;BMP180;10210;52.284;9.892;2024-01-06T02:15:49;99234.00;;;9.60
20103;BMP180;10210;52.284;9.892;2024-01-06T02:18:16;99242.00;;;9.60
20103;BMP180;10210;52.284;9.892;2024-01-06T02:20:46;99236.00;;;9.60
20103;BMP180;10210;52.284;9.892;2024-01-06T02:23:12;99249.00;;;9.60
20103;BMP180;10210;52.284;9.892;2024-01-06T02:25:38;99263.00;;;9.60
20103;BMP180;10210;52.284;9.892;2024-01-06T02:28:04;99254.00;;;9.60
20103;BMP180;10210;52.284;9.892;2024-01-06T02:30:29;99259.00;;;9.60
20103;BMP180;10210;52.284;9.892;2024-01-06T02:32:55;99260.00;;;9.60
20103;BMP180;10210;52.284;9.892;2024-01-06T02:35:21;99273.00;;;9.60
20103;BMP180;10210;52.284;9.892;2024-01-06T02:37:46;99269.00;;;9.60
20103;BMP180;10210;52.284;9.892;2024-01-06T02:40:13;99275.00;;;9.60
20103;BMP180;10210;52.284;9.892;2024-01-06T02:42:39;99265.00;;;9.60
20103;BMP180;10210;52.284;9.892;2024-01-06T02:45:06;99265.00;;;9.50
20103;BMP180;10210;52.284;9.892;2024-01-06T02:47:32;99268.00;;;9.50
20103;BMP180;10210;52.284;9.892;2024-01-06T02:49:59;99267.00;;;9.50
20103;BMP180;10210;52.284;9.892;2024-01-06T02:52:24;99277.00;;;9.50
20103;BMP180;10210;52.284;9.892;2024-01-06T02:54:50;99276.00;;;9.40
20103;BMP180;10210;52.284;9.892;2024-01-06T02:57:16;99278.00;;;9.40
20103;BMP180;10210;52.284;9.892;2024-01-06T02:59:43;99273.00;;;9.30
20103;BMP180;10210;52.284;9.892;2024-01-06T03:02:08;99275.00;;;9.30
20103;BMP180;10210;52.284;9.892;2024-01-06T03:04:34;99289.00;;;9.30
20103;BMP180;10210;52.284;9.892;2024-01-06T03:07:00;99283.00;;;9.20
20103;BMP180;10210;52.284;9.892;2024-01-06T03:09:25;99282.00;;;9.20
20103;BMP180;10210;52.284;9.892;2024-01-06T03:11:51;99278.00;;;9.30
20103;BMP180;10210;52.284;9.892;2024-01-06T03:14:16;99294.00;;;9.30
20103;BMP180;10210;52.284;9.892;2024-01-06T03:16:43;99286.00;;;9.30
20103;BMP180;10210;52.284;9.892;2024-01-06T03:19:09;99287.00;;;9.30
20103;BMP180;10210;52.284;9.892;2024-01-06T03:21:34;99287.00;;;9.30
20103;BMP180;10210;52.284;9.892;2024-01-06T03:24:00;99293.00;;;9.30
20103;BMP180;10210;52.284;9.892;2024-01-06T03:26:26;99288.00;;;9.30
20103;BMP180;10210;52.284;9.892;2024-01-06T03:28:51;99289.00;;;9.30
20103;BMP180;10210;52.284;9.892;2024-01-06T03:31:17;99298.00;;;9.30
20103;BMP180;10210;52.284;9.892;2024-01-06T03:33:45;99298.00;;;9.30
20103;BMP180;10210;52.284;9.892;2024-01-06T03:36:13;99299.00;;;9.20
20103;BMP180;10210;52.284;9.892;2024-01-06T03:38:43;99305.00;;;9.20
20103;BMP180;10210;52.284;9.892;2024-01-06T03:41:08;99314.00;;;9.20
20103;BMP180;10210;52.284;9.892;2024-01-06T03:43:34;99317.00;;;9.10
20103;BMP180;10210;52.284;9.892;2024-01-06T03:45:59;99319.00;;;9.10
20103;BMP180;10210;52.284;9.892;2024-01-06T03:48:26;99322.00;;;9.10
20103;BMP180;10210;52.284;9.892;2024-01-06T03:50:52;99313.00;;;9.10
20103;BMP180;10210;52.284;9.892;2024-01-06T03:53:17;99322.00;;;9.20
20103;BMP180;10210;52.284;9.892;2024-01-06T03:55:43;99316.00;;;9.20
20103;BMP180;10210;52.284;9.892;2024-01-06T03:58:09;99322.00;;;9.20
20103;BMP180;10210;52.284;9.892;2024-01-06T04:00:34;99309.00;;;9.20
20103;BMP180;10210;52.284;9.892;2024-01-06T04:03:00;99318.00;;;9.20
20103;BMP180;10210;52.284;9.892;2024-01-06T04:05:26;99323.00;;;9.20
20103;BMP180;10210;52.284;9.892;2024-01-06T04:07:51;99327.00;;;9.20
20103;BMP180;10210;52.284;9.892;2024-01-06T04:10:17;99334.00;;;9.20
20103;BMP180;10210;52.284;9.892;2024-01-06T04:12:43;99329.00;;;9.30
20103;BMP180;10210;52.284;9.892;2024-01-06T04:15:08;99344.00;;;9.30
20103;BMP180;10210;52.284;9.892;2024-01-06T04:17:34;99349.00;;;9.30
20103;BMP180;10210;52.284;9.892;2024-01-06T04:20:00;99350.00;;;9.30
20103;BMP180;10210;52.284;9.892;2024-01-06T04:22:25;99346.00;;;9.30
20103;BMP180;10210;52.284;9.892;2024-01-06T04:24:51;99353.00;;;9.30
20103;BMP180;10210;52.284;9.892;2024-01-06T04:27:17;99347.00;;;9.30
20103;BMP180;10210;52.284;9.892;2024-01-06T04:29:43;99349.00;;;9.30
20103;BMP180;10210;52.284;9.892;2024-01-06T04:32:09;99363.00;;;9.30
20103;BMP180;10210;52.284;9.892;2024-01-06T04:34:34;99367.00;;;9.20
20103;BMP180;10210;52.284;9.892;2024-01-06T04:37:00;99376.00;;;9.20
20103;BMP180;10210;52.284;9.892;2024-01-06T04:39:26;99380.00;;;9.20
20103;BMP180;10210;52.284;9.892;2024-01-06T04:41:51;99386.00;;;9.20
20103;BMP180;10210;52.284;9.892;2024-01-06T04:44:21;99388.00;;;9.20
20103;BMP180;10210;52.284;9.892;2024-01-06T04:46:47;99394.00;;;9.20
20103;BMP180;10210;52.284;9.892;2024-01-06T04:49:12;99390.00;;;9.20
20103;BMP180;10210;52.284;9.892;2024-01-06T04:51:38;99389.00;;;9.20
20103;BMP180;10210;52.284;9.892;2024-01-06T04:54:04;99385.00;;;9.30
20103;BMP180;10210;52.284;9.892;2024-01-06T04:56:29;99379.00;;;9.30
20103;BMP180;10210;52.284;9.892;2024-01-06T04:58:55;99384.00;;;9.20
20103;BMP180;10210;52.284;9.892;2024-01-06T05:01:21;99393.00;;;9.20
20103;BMP180;10210;52.284;9.892;2024-01-06T05:03:47;99387.00;;;9.20
20103;BMP180;10210;52.284;9.892;2024-01-06T05:06:13;99378.00;;;9.10
20103;BMP180;10210;52.284;9.892;2024-01-06T05:08:38;99394.00;;;9.10
20103;BMP180;10210;52.284;9.892;2024-01-06T05:11:10;99380.00;;;9.10
20103;BMP180;10210;52.284;9.892;2024-01-06T05:13:37;99394.00;;;9.10
20103;BMP180;10210;52.284;9.892;2024-01-06T05:16:03;99397.00;;;9.20
20103;BMP180;10210;52.284;9.892;2024-01-06T05:18:29;99406.00;;;9.20
20103;BMP180;10210;52.284;9.892;2024-01-06T05:20:55;99408.00;;;9.20
20103;BMP180;10210;52.284;9.892;2024-01-06T05:23:21;99414.00;;;9.30
20103;BMP180;10210;52.284;9.892;2024-01-06T05:25:47;99411.00;;;9.30
20103;BMP180;10210;52.284;9.892;2024-01-06T05:28:13;99419.00;;;9.30
20103;BMP180;10210;52.284;9.892;2024-01-06T05:30:38;99417.00;;;9.30
20103;BMP180;10210;52.284;9.892;2024-01-06T05:33:04;99414.00;;;9.30
20103;BMP180;10210;52.284;9.892;2024-01-06T05:35:30;99420.00;;;9.30
20103;BMP180;10210;52.284;9.892;2024-01-06T05:37:56;99423.00;;;9.30
20103;BMP180;10210;52.284;9.892;2024-01-06T05:40:21;99429.00;;;9.30
20103;BMP180;10210;52.284;9.892;2024-01-06T05:42:47;99423.00;;;9.30
20103;BMP180;10210;52.284;9.892;2024-01-06T05:45:13;99425.00;;;9.30
20103;BMP180;10210;52.284;9.892;2024-01-06T05:47:39;99415.00;;;9.30
20103;BMP180;10210;52.284;9.892;2024-01-06T05:50:05;99426.00;;;9.30
20103;BMP180;10210;52.284;9.892;2024-01-06T05:52:31;99418.00;;;9.30
20103;BMP180;10210;52.284;9.892;2024-01-06T05:54:57;99419.00;;;9.30
20103;BMP180;10210;52.284;9.892;2024-01-06T05:57:24;99427.00;;;9.20
20103;BMP180;10210;52.284;9.892;2024-01-06T05:59:49;99434.00;;;9.20
20103;BMP180;10210;52.284;9.892;2024-01-06T06:02:15;99455.00;;;9.20
20103;BMP180;10210;52.284;9.892;2024-01-06T06:04:40;99450.00;;;9.20
20103;BMP180;10210;52.284;9.892;2024-01-06T06:07:06;99447.00;;;9.20
20103;BMP180;10210;52.284;9.892;2024-01-06T06:09:32;99445.00;;;9.20
20103;BMP180;10210;52.284;9.892;2024-01-06T06:12:00;99449.00;;;9.20
20103;BMP180;10210;52.284;9.892;2024-01-06T06:14:26;99454.00;;;9.20
20103;BMP180;10210;52.284;9.892;2024-01-06T06:16:51;99460.00;;;9.20
20103;BMP180;10210;52.284;9.892;2024-01-06T06:19:17;99464.00;;;9.20
20103;BMP180;10210;52.284;9.892;2024-01-06T06:21:44;99483.00;;;9.20
20103;BMP180;10210;52.284;9.892;2024-01-06T06:24:09;99471.00;;;9.10
20103;BMP180;10210;52.284;9.892;2024-01-06T06:26:35;99482.00;;;9.10
20103;BMP180;10210;52.284;9.892;2024-01-06T06:29:02;99493.00;;;9.10
20103;BMP180;10210;52.284;9.892;2024-01-06T06:31:27;99505.00;;;9.10
20103;BMP180;10210;52.284;9.892;2024-01-06T06:33:53;99508.00;;;9.10
20103;BMP180;10210;52.284;9.892;2024-01-06T06:36:19;99506.00;;;9.10
20103;BMP180;10210;52.284;9.892;2024-01-06T06:38:45;99511.00;;;9.10
20103;BMP180;10210;52.284;9.892;2024-01-06T06:41:11;99510.00;;;9.10
20103;BMP180;10210;52.284;9.892;2024-01-06T06:43:37;99513.00;;;9.10
20103;BMP180;10210;52.284;9.892;2024-01-06T06:46:03;99521.00;;;9.10
20103;BMP180;10210;52.284;9.892;2024-01-06T06:48:28;99527.00;;;9.10
20103;BMP180;10210;52.284;9.892;2024-01-06T06:50:54;99527.00;;;9.10
20103;BMP180;10210;52.284;9.892;2024-01-06T06:53:20;99529.00;;;9.10
20103;BMP180;10210;52.284;9.892;2024-01-06T06:55:46;99523.00;;;9.10
20103;BMP180;10210;52.284;9.892;2024-01-06T06:58:12;99528.00;;;9.10
20103;BMP180;10210;52.284;9.892;2024-01-06T07:00:38;99530.00;;;9.10
20103;BMP180;10210;52.284;9.892;2024-01-06T07:03:04;99544.00;;;9.00
20103;BMP180;10210;52.284;9.892;2024-01-06T07:05:30;99539.00;;;9.00
20103;BMP180;10210;52.284;9.892;2024-01-06T07:07:55;99541.00;;;9.10
20103;BMP180;10210;52.284;9.892;2024-01-06T07:10:22;99542.00;;;9.10
20103;BMP180;10210;52.284;9.892;2024-01-06T07:12:48;99551.00;;;9.10
20103;BMP180;10210;52.284;9.892;2024-01-06T07:15:13;99554.00;;;9.10
20103;BMP180;10210;52.284;9.892;2024-01-06T07:17:39;99554.00;;;9.00
20103;BMP180;10210;52.284;9.892;2024-01-06T07:20:07;99563.00;;;9.00
20103;BMP180;10210;52.284;9.892;2024-01-06T07:22:34;99557.00;;;9.00
20103;BMP180;10210;52.284;9.892;2024-01-06T07:25:03;99557.00;;;9.00
20103;BMP180;10210;52.284;9.892;2024-01-06T07:27:28;99563.00;;;9.00
20103;BMP180;10210;52.284;9.892;2024-01-06T07:29:54;99555.00;;;8.90
20103;BMP180;10210;52.284;9.892;2024-01-06T07:32:22;99568.00;;;8.90
20103;BMP180;10210;52.284;9.892;2024-01-06T07:34:48;99571.00;;;8.90
20103;BMP180;10210;52.284;9.892;2024-01-06T07:37:14;99582.00;;;8.90
20103;BMP180;10210;52.284;9.892;2024-01-06T07:39:39;99588.00;;;8.90
20103;BMP180;10210;52.284;9.892;2024-01-06T07:42:05;99590.00;;;8.90
20103;BMP180;10210;52.284;9.892;2024-01-06T07:44:31;99601.00;;;8.90
20103;BMP180;10210;52.284;9.892;2024-01-06T07:46:56;99601.00;;;8.90
20103;BMP180;10210;52.284;9.892;2024-01-06T07:49:22;99607.00;;;8.90
20103;BMP180;10210;52.284;9.892;2024-01-06T07:51:47;99606.00;;;8.90
20103;BMP180;10210;52.284;9.892;2024-01-06T07:54:13;99609.00;;;8.80
20103;BMP180;10210;52.284;9.892;2024-01-06T07:56:39;99621.00;;;8.90
20103;BMP180;10210;52.284;9.892;2024-01-06T07:59:04;99614.00;;;8.80
20103;BMP180;10210;52.284;9.892;2024-01-06T08:01:30;99612.00;;;8.80
20103;BMP180;10210;52.284;9.892;2024-01-06T08:03:57;99618.00;;;8.80
20103;BMP180;10210;52.284;9.892;2024-01-06T08:06:23;99625.00;;;8.80
20103;BMP180;10210;52.284;9.892;2024-01-06T08:08:48;99633.00;;;8.80
20103;BMP180;10210;52.284;9.892;2024-01-06T08:11:14;99639.00;;;8.80
20103;BMP180;10210;52.284;9.892;2024-01-06T08:13:42;99639.00;;;8.70
20103;BMP180;10210;52.284;9.892;2024-01-06T08:16:09;99650.00;;;8.70
20103;BMP180;10210;52.284;9.892;2024-01-06T08:18:35;99647.00;;;8.70
20103;BMP180;10210;52.284;9.892;2024-01-06T08:21:00;99648.00;;;8.70
20103;BMP180;10210;52.284;9.892;2024-01-06T08:23:26;99656.00;;;8.70
20103;BMP180;10210;52.284;9.892;2024-01-06T08:25:51;99653.00;;;8.70
20103;BMP180;10210;52.284;9.892;2024-01-06T08:28:17;99654.00;;;8.70
20103;BMP180;10210;52.284;9.892;2024-01-06T08:30:44;99670.00;;;8.70
20103;BMP180;10210;52.284;9.892;2024-01-06T08:33:10;99667.00;;;8.70
20103;BMP180;10210;52.284;9.892;2024-01-06T08:35:36;99686.00;;;8.70
20103;BMP180;10210;52.284;9.892;2024-01-06T08:38:08;99682.00;;;8.70
20103;BMP180;10210;52.284;9.892;2024-01-06T08:40:35;99690.00;;;8.70
20103;BMP180;10210;52.284;9.892;2024-01-06T08:43:01;99690.00;;;8.70
20103;BMP180;10210;52.284;9.892;2024-01-06T08:45:27;99695.00;;;8.70
20103;BMP180;10210;52.284;9.892;2024-01-06T08:47:53;99702.00;;;8.70
20103;BMP180;10210;52.284;9.892;2024-01-06T08:50:18;99701.00;;;8.70
20103;BMP180;10210;52.284;9.892;2024-01-06T08:52:44;99708.00;;;8.70
20103;BMP180;10210;52.284;9.892;2024-01-06T08:55:10;99711.00;;;8.70
20103;BMP180;10210;52.284;9.892;2024-01-06T08:57:35;99707.00;;;8.70
20103;BMP180;10210;52.284;9.892;2024-01-06T09:00:03;99724.00;;;8.70
20103;BMP180;10210;52.284;9.892;2024-01-06T09:02:29;99725.00;;;8.70
20103;BMP180;10210;52.284;9.892;2024-01-06T09:04:55;99724.00;;;8.70
20103;BMP180;10210;52.284;9.892;2024-01-06T09:07:21;99736.00;;;8.70
20103;BMP180;10210;52.284;9.892;2024-01-06T09:09:46;99744.00;;;8.70
20103;BMP180;10210;52.284;9.892;2024-01-06T09:12:12;99742.00;;;8.60
20103;BMP180;10210;52.284;9.892;2024-01-06T09:14:37;99752.00;;;8.70
20103;BMP180;10210;52.284;9.892;2024-01-06T09:17:03;99749.00;;;8.60
20103;BMP180;10210;52.284;9.892;2024-01-06T09:19:30;99757.00;;;8.60
20103;BMP180;10210;52.284;9.892;2024-01-06T09:21:56;99737.00;;;8.60
20103;BMP180;10210;52.284;9.892;2024-01-06T09:24:22;99754.00;;;8.60
20103;BMP180;10210;52.284;9.892;2024-01-06T09:26:48;99769.00;;;8.60
20103;BMP180;10210;52.284;9.892;2024-01-06T09:29:16;99766.00;;;8.60
20103;BMP180;10210;52.284;9.892;2024-01-06T09:31:43;99761.00;;;8.70
20103;BMP180;10210;52.284;9.892;2024-01-06T09:34:10;99775.00;;;8.70
20103;BMP180;10210;52.284;9.892;2024-01-06T09:36:35;99769.00;;;8.70
20103;BMP180;10210;52.284;9.892;2024-01-06T09:39:01;99787.00;;;8.70
20103;BMP180;10210;52.284;9.892;2024-01-06T09:41:27;99777.00;;;8.70
20103;BMP180;10210;52.284;9.892;2024-01-06T09:43:53;99785.00;;;8.70
20103;BMP180;10210;52.284;9.892;2024-01-06T09:46:29;99782.00;;;8.70
20103;BMP180;10210;52.284;9.892;2024-01-06T09:48:55;99789.00;;;8.70
20103;BMP180;10210;52.284;9.892;2024-01-06T09:51:22;99788.00;;;8.70
20103;BMP180;10210;52.284;9.892;2024-01-06T09:53:59;99788.00;;;8.60
20103;BMP180;10210;52.284;9.892;2024-01-06T09:56:27;99795.00;;;8.70
20103;BMP180;10210;52.284;9.892;2024-01-06T09:58:54;99798.00;;;8.70
20103;BMP180;10210;52.284;9.892;2024-01-06T10:01:21;99795.00;;;8.70
20103;BMP180;10210;52.284;9.892;2024-01-06T10:03:48;99792.00;;;8.70
20103;BMP180;10210;52.284;9.892;2024-01-06T10:06:14;99797.00;;;8.70
20103;BMP180;10210;52.284;9.892;2024-01-06T10:08:43;99803.00;;;8.70
20103;BMP180;10210;52.284;9.892;2024-01-06T10:11:09;99807.00;;;8.70
20103;BMP180;10210;52.284;9.892;2024-01-06T10:13:36;99813.00;;;8.70
20103;BMP180;10210;52.284;9.892;2024-01-06T10:16:05;99823.00;;;8.70
20103;BMP180;10210;52.284;9.892;2024-01-06T10:18:31;99826.00;;;8.70
20103;BMP180;10210;52.284;9.892;2024-01-06T10:20:58;99830.00;;;8.70
20103;BMP180;10210;52.284;9.892;2024-01-06T10:23:26;99820.00;;;8.70
20103;BMP180;10210;52.284;9.892;2024-01-06T10:25:54;99819.00;;;8.70
20103;BMP180;10210;52.284;9.892;2024-01-06T10:28:21;99826.00;;;8.70
20103;BMP180;10210;52.284;9.892;2024-01-06T10:30:55;99825.00;;;8.70
20103;BMP180;10210;52.284;9.892;2024-01-06T10:33:22;99821.00;;;8.70
20103;BMP180;10210;52.284;9.892;2024-01-06T10:35:49;99823.00;;;8.70
20103;BMP180;10210;52.284;9.892;2024-01-06T10:38:15;99823.00;;;8.70
20103;BMP180;10210;52.284;9.892;2024-01-06T10:41:00;99823.00;;;8.60
20103;BMP180;10210;52.284;9.892;2024-01-06T10:43:27;99826.00;;;8.70
20103;BMP180;10210;52.284;9.892;2024-01-06T10:45:57;99832.00;;;8.60
20103;BMP180;10210;52.284;9.892;2024-01-06T10:48:38;99831.00;;;8.60
20103;BMP180;10210;52.284;9.892;2024-01-06T10:51:04;99838.00;;;8.60
20103;BMP180;10210;52.284;9.892;2024-01-06T10:53:35;99837.00;;;8.60
20103;BMP180;10210;52.284;9.892;2024-01-06T10:56:06;99828.00;;;8.60
20103;BMP180;10210;52.284;9.892;2024-01-06T10:58:36;99836.00;;;8.50
20103;BMP180;10210;52.284;9.892;2024-01-06T11:01:08;99838.00;;;8.50
20103;BMP180;10210;52.284;9.892;2024-01-06T11:03:37;99842.00;;;8.50
20103;BMP180;10210;52.284;9.892;2024-01-06T11:06:06;99848.00;;;8.50
20103;BMP180;10210;52.284;9.892;2024-01-06T11:08:46;99842.00;;;8.50
20103;BMP180;10210;52.284;9.892;2024-01-06T11:11:19;99849.00;;;8.50
20103;BMP180;10210;52.284;9.892;2024-01-06T11:13:46;99844.00;;;8.50
20103;BMP180;10210;52.284;9.892;2024-01-06T11:16:37;99852.00;;;8.50
20103;BMP180;10210;52.284;9.892;2024-01-06T11:22:29;99859.00;;;8.40
20103;BMP180;10210;52.284;9.892;2024-01-06T11:25:07;99854.00;;;8.40
20103;BMP180;10210;52.284;9.892;2024-01-06T11:27:34;99857.00;;;8.40
20103;BMP180;10210;52.284;9.892;2024-01-06T11:30:03;99852.00;;;8.40
20103;BMP180;10210;52.284;9.892;2024-01-06T11:32:36;99849.00;;;8.40
20103;BMP180;10210;52.284;9.892;2024-01-06T11:35:11;99847.00;;;8.40
20103;BMP180;10210;52.284;9.892;2024-01-06T11:43:08;99844.00;;;8.40
20103;BMP180;10210;52.284;9.892;2024-01-06T11:45:36;99859.00;;;8.40
20103;BMP180;10210;52.284;9.892;2024-01-06T11:48:05;99854.00;;;8.40
20103;BMP180;10210;52.284;9.892;2024-01-06T11:50:33;99862.00;;;8.40
20103;BMP180;10210;52.284;9.892;2024-01-06T11:52:59;99855.00;;;8.40
20103;BMP180;10210;52.284;9.892;2024-01-06T11:55:26;99860.00;;;8.40
20103;BMP180;10210;52.284;9.892;2024-01-06T11:57:58;99859.00;;;8.40
20103;BMP180;10210;52.284;9.892;2024-01-06T12:00:29;99860.00;;;8.40
20103;BMP180;10210;52.284;9.892;2024-01-06T12:03:00;99863.00;;;8.40
20103;BMP180;10210;52.284;9.892;2024-01-06T12:05:27;99865.00;;;8.30
20103;BMP180;10210;52.284;9.892;2024-01-06T12:08:01;99855.00;;;8.30
20103;BMP180;10210;52.284;9.892;2024-01-06T12:10:29;99860.00;;;8.30
20103;BMP180;10210;52.284;9.892;2024-01-06T12:13:05;99861.00;;;8.30
20103;BMP180;10210;52.284;9.892;2024-01-06T12:15:34;99866.00;;;8.30
20103;BMP180;10210;52.284;9.892;2024-01-06T12:18:03;99860.00;;;8.30
20103;BMP180;10210;52.284;9.892;2024-01-06T12:20:29;99871.00;;;8.30
20103;BMP180;10210;52.284;9.892;2024-01-06T12:22:56;99871.00;;;8.20
20103;BMP180;10210;52.284;9.892;2024-01-06T12:25:24;99868.00;;;8.20
20103;BMP180;10210;52.284;9.892;2024-01-06T12:27:52;99872.00;;;8.10
20103;BMP180;10210;52.284;9.892;2024-01-06T12:30:21;99869.00;;;8.10
20103;BMP180;10210;52.284;9.892;2024-01-06T12:32:49;99877.00;;;8.10
20103;BMP180;10210;52.284;9.892;2024-01-06T12:35:16;99885.00;;;8.10
20103;BMP180;10210;52.284;9.892;2024-01-06T12:37:44;99887.00;;;8.10
20103;BMP180;10210;52.284;9.892;2024-01-06T12:40:16;99889.00;;;8.00
20103;BMP180;10210;52.284;9.892;2024-01-06T12:42:43;99892.00;;;8.00
20103;BMP180;10210;52.284;9.892;2024-01-06T12:45:09;99896.00;;;8.00
20103;BMP180;10210;52.284;9.892;2024-01-06T12:47:35;99894.00;;;8.00
20103;BMP180;10210;52.284;9.892;2024-01-06T12:50:02;99895.00;;;8.00
20103;BMP180;10210;52.284;9.892;2024-01-06T12:52:29;99883.00;;;8.00
20103;BMP180;10210;52.284;9.892;2024-01-06T12:54:55;99897.00;;;8.00
20103;BMP180;10210;52.284;9.892;2024-01-06T12:57:21;99894.00;;;8.00
20103;BMP180;10210;52.284;9.892;2024-01-06T12:59:46;99899.00;;;8.00
20103;BMP180;10210;52.284;9.892;2024-01-06T13:02:12;99891.00;;;8.00
20103;BMP180;10210;52.284;9.892;2024-01-06T13:04:38;99899.00;;;8.10
20103;BMP180;10210;52.284;9.892;2024-01-06T13:07:03;99900.00;;;8.10
20103;BMP180;10210;52.284;9.892;2024-01-06T13:09:29;99902.00;;;8.00
20103;BMP180;10210;52.284;9.892;2024-01-06T13:11:55;99911.00;;;8.00
20103;BMP180;10210;52.284;9.892;2024-01-06T13:14:28;99900.00;;;8.00
20103;BMP180;10210;52.284;9.892;2024-01-06T13:16:55;99913.00;;;8.00
20103;BMP180;10210;52.284;9.892;2024-01-06T13:19:21;99909.00;;;8.00
20103;BMP180;10210;52.284;9.892;2024-01-06T13:21:47;99924.00;;;8.00
20103;BMP180;10210;52.284;9.892;2024-01-06T13:24:12;99919.00;;;7.90
20103;BMP180;10210;52.284;9.892;2024-01-06T13:26:38;99920.00;;;7.90
20103;BMP180;10210;52.284;9.892;2024-01-06T13:29:04;99927.00;;;7.90
20103;BMP180;10210;52.284;9.892;2024-01-06T13:31:30;99933.00;;;7.80
20103;BMP180;10210;52.284;9.892;2024-01-06T13:33:56;99931.00;;;7.80
20103;BMP180;10210;52.284;9.892;2024-01-06T13:36:22;99941.00;;;7.80
20103;BMP180;10210;52.284;9.892;2024-01-06T13:38:48;99945.00;;;7.80
20103;BMP180;10210;52.284;9.892;2024-01-06T13:41:15;99948.00;;;7.80
20103;BMP180;10210;52.284;9.892;2024-01-06T13:43:41;99954.00;;;7.80
20103;BMP180;10210;52.284;9.892;2024-01-06T13:46:10;99957.00;;;7.80
20103;BMP180;10210;52.284;9.892;2024-01-06T13:48:36;99951.00;;;7.80
20103;BMP180;10210;52.284;9.892;2024-01-06T13:51:02;99958.00;;;7.80
20103;BMP180;10210;52.284;9.892;2024-01-06T13:53:28;99957.00;;;7.80
20103;BMP180;10210;52.284;9.892;2024-01-06T13:55:54;99968.00;;;7.80
20103;BMP180;10210;52.284;9.892;2024-01-06T13:58:20;99968.00;;;7.80
20103;BMP180;10210;52.284;9.892;2024-01-06T14:00:45;99974.00;;;7.80
20103;BMP180;10210;52.284;9.892;2024-01-06T14:03:13;99973.00;;;7.70
20103;BMP180;10210;52.284;9.892;2024-01-06T14:05:38;99969.00;;;7.70
20103;BMP180;10210;52.284;9.892;2024-01-06T14:08:06;99982.00;;;7.70
20103;BMP180;10210;52.284;9.892;2024-01-06T14:10:31;99976.00;;;7.60
20103;BMP180;10210;52.284;9.892;2024-01-06T14:12:58;99993.00;;;7.60
20103;BMP180;10210;52.284;9.892;2024-01-06T14:15:23;99989.00;;;7.60
20103;BMP180;10210;52.284;9.892;2024-01-06T14:17:49;99996.00;;;7.50
20103;BMP180;10210;52.284;9.892;2024-01-06T14:20:17;100014.00;;;7.50
20103;BMP180;10210;52.284;9.892;2024-01-06T14:22:46;100004.00;;;7.50
20103;BMP180;10210;52.284;9.892;2024-01-06T14:25:13;100002.00;;;7.50
20103;BMP180;10210;52.284;9.892;2024-01-06T14:27:38;100004.00;;;7.50